Time;durP1;ratioP1;P1;durP2;ratioP2;P2;SDS_P1;SDS_P2;PMS_P1;PMS_P2;Temp;Humidity;BMP_temperature;BMP_pressure;BME280_temperature;BME280_humidity;BME280_pressure;Samples;Min_cycle;Max_cycle;Signal;HPM_P1;HPM_P2
2022/02/05 00:03:06;;;;;;;5.10;3.25;;;;;;;;;;4985618;28;20038;-78
2022/02/05 00:05:41;;;;;;;6.38;3.03;;;;;;;;;;4985814;28;20136;-77
2022/02/05 00:43:06;;;;;;;5.05;2.35;;;;;;;;;;4965944;28;20030;-76
2022/02/05 00:45:35;;;;;;;4.07;2.17;;;;;;;;;;4969249;28;20161;-73
2022/02/05 00:48:02;;;;;;;5.13;2.30;;;;;;;;;;4966901;28;20938;-75
2022/02/05 00:50:29;;;;;;;5.72;2.72;;;;;;;;;;4967973;28;20115;-74
2022/02/05 00:53:02;;;;;;;3.85;2.20;;;;;;;;;;4967874;28;20054;-75
2022/02/05 00:55:31;;;;;;;4.13;2.10;;;;;;;;;;4962850;28;20447;-75
2022/02/05 00:58:02;;;;;;;3.53;2.20;;;;;;;;;;4976757;28;20080;-73
2022/02/05 01:00:27;;;;;;;3.80;1.90;;;;;;;;;;5010290;28;20048;-75
2022/02/05 01:02:54;;;;;;;4.15;1.90;;;;;;;;;;5012861;28;20097;-75
2022/02/05 01:05:20;;;;;;;3.58;1.85;;;;;;;;;;5010740;28;20040;-74
2022/02/05 01:07:45;;;;;;;2.60;1.13;;;;;;;;;;5009804;28;20018;-75
2022/02/05 01:10:11;;;;;;;1.70;0.70;;;;;;;;;;5008678;28;20061;-74
2022/02/05 01:12:39;;;;;;;2.20;0.80;;;;;;;;;;5010212;28;20041;-76
2022/02/05 01:15:05;;;;;;;2.22;0.80;;;;;;;;;;5009200;28;20058;-74
2022/02/05 01:17:37;;;;;;;1.35;0.60;;;;;;;;;;5010432;28;20073;-75
2022/02/05 01:22:35;;;;;;;1.17;0.70;;;;;;;;;;5009895;28;20041;-75
2022/02/05 01:25:00;;;;;;;2.78;0.77;;;;;;;;;;5008295;28;20389;-75
2022/02/05 01:27:42;;;;;;;1.27;0.68;;;;;;;;;;5009988;28;20041;-74
2022/02/05 01:50:29;;;;;;;0.88;0.75;;;;;;;;;;4946274;29;20402;-73
2022/02/05 01:55:44;;;;;;;2.00;1.10;;;;;;;;;;4950087;29;20054;-75
2022/02/05 02:22:15;;;;;;;4.22;1.20;;;;;;;;;;4983637;28;20038;-75
2022/02/05 02:25:00;;;;;;;3.03;1.67;;;;;;;;;;4986181;28;20498;-74
2022/02/05 02:27:38;;;;;;;1.92;1.20;;;;;;;;;;4982553;28;20038;-75
2022/02/05 02:30:17;;;;;;;1.15;0.90;;;;;;;;;;4987704;28;20469;-74
2022/02/05 02:32:46;;;;;;;2.73;1.00;;;;;;;;;;4987082;28;20512;-75
2022/02/05 02:35:18;;;;;;;2.65;1.15;;;;;;;;;;4986711;28;20030;-74
2022/02/05 02:37:52;;;;;;;1.00;0.63;;;;;;;;;;4995387;28;20037;-73
2022/02/05 02:42:46;;;;;;;1.15;0.70;;;;;;;;;;4986764;28;20034;-74
2022/02/05 02:45:11;;;;;;;1.25;0.68;;;;;;;;;;4993340;28;20038;-73
2022/02/05 02:47:42;;;;;;;2.05;0.63;;;;;;;;;;5008676;28;20052;-75
2022/02/05 02:50:14;;;;;;;0.98;0.57;;;;;;;;;;5008431;28;20026;-75
2022/02/05 02:58:15;;;;;;;0.93;0.40;;;;;;;;;;5007144;28;20154;-75
2022/02/05 03:00:40;;;;;;;0.65;0.45;;;;;;;;;;5000777;28;20065;-74
2022/02/05 03:03:05;;;;;;;1.70;0.38;;;;;;;;;;5006579;28;20539;-74
2022/02/05 03:05:31;;;;;;;0.93;0.50;;;;;;;;;;5008623;28;20036;-75
2022/02/05 03:07:56;;;;;;;1.15;0.60;;;;;;;;;;5008951;28;20128;-74
2022/02/05 03:10:22;;;;;;;1.40;0.50;;;;;;;;;;5008880;28;20029;-76
2022/02/05 03:12:47;;;;;;;2.35;0.60;;;;;;;;;;5009171;28;20033;-75
2022/02/05 03:15:19;;;;;;;2.03;0.85;;;;;;;;;;5010750;28;20026;-75
2022/02/05 03:18:05;;;;;;;0.95;0.55;;;;;;;;;;5003663;28;20095;-74
2022/02/05 03:20:33;;;;;;;1.17;0.63;;;;;;;;;;5005409;28;20057;-75
2022/02/05 03:23:00;;;;;;;2.35;0.60;;;;;;;;;;5006552;28;20500;-74
2022/02/05 03:25:25;;;;;;;0.88;0.63;;;;;;;;;;5007566;28;20053;-73
2022/02/05 03:27:50;;;;;;;1.08;0.60;;;;;;;;;;5008087;28;20057;-75
2022/02/05 03:30:15;;;;;;;1.10;0.70;;;;;;;;;;5008093;28;20038;-75
2022/02/05 03:32:40;;;;;;;0.60;0.50;;;;;;;;;;5008526;28;20426;-74
2022/02/05 03:35:06;;;;;;;1.02;0.50;;;;;;;;;;5010197;28;20021;-75
2022/02/05 03:37:32;;;;;;;0.77;0.70;;;;;;;;;;5009302;28;20072;-75
2022/02/05 03:39:58;;;;;;;1.73;0.70;;;;;;;;;;5007587;28;20029;-74
2022/02/05 03:42:23;;;;;;;0.60;0.55;;;;;;;;;;5008766;28;20056;-75
2022/02/05 03:44:48;;;;;;;0.75;0.70;;;;;;;;;;5007812;28;20108;-73
2022/02/05 03:47:13;;;;;;;0.90;0.80;;;;;;;;;;5006635;28;20038;-75
2022/02/05 03:49:38;;;;;;;0.90;0.60;;;;;;;;;;5007378;28;20327;-75
2022/02/05 03:52:04;;;;;;;1.58;0.73;;;;;;;;;;5007548;28;20030;-74
2022/02/05 03:54:31;;;;;;;1.30;0.77;;;;;;;;;;5006801;28;20050;-74
2022/02/05 03:56:56;;;;;;;2.22;1.02;;;;;;;;;;5007659;28;20077;-74
2022/02/05 03:59:23;;;;;;;1.50;0.80;;;;;;;;;;5003592;28;20446;-75
2022/02/05 04:01:48;;;;;;;1.90;0.93;;;;;;;;;;5007350;28;20869;-74
2022/02/05 04:04:13;;;;;;;1.67;1.00;;;;;;;;;;5006482;28;20018;-73
2022/02/05 04:06:38;;;;;;;2.30;1.00;;;;;;;;;;5005567;28;20110;-75
2022/02/05 04:09:09;;;;;;;1.35;0.70;;;;;;;;;;5009199;28;20402;-74
2022/02/05 04:11:49;;;;;;;1.85;0.82;;;;;;;;;;5010594;28;20125;-75
2022/02/05 04:16:58;;;;;;;3.10;1.00;;;;;;;;;;5011421;28;20511;-74
2022/02/05 04:19:24;;;;;;;1.13;0.70;;;;;;;;;;5008701;28;20057;-74
2022/02/05 04:21:49;;;;;;;1.58;0.90;;;;;;;;;;5006969;28;20101;-74
2022/02/05 04:24:14;;;;;;;2.25;0.90;;;;;;;;;;5010975;28;20037;-75
2022/02/05 04:26:39;;;;;;;1.45;0.75;;;;;;;;;;5013763;28;20038;-73
2022/02/05 04:29:08;;;;;;;1.77;1.15;;;;;;;;;;5011478;28;20025;-74
2022/02/05 04:31:33;;;;;;;1.92;1.00;;;;;;;;;;5011934;28;20034;-74
2022/02/05 04:33:59;;;;;;;2.75;0.90;;;;;;;;;;5011103;28;20556;-74
2022/02/05 04:36:24;;;;;;;2.97;1.30;;;;;;;;;;5012087;28;20021;-74
2022/02/05 04:38:51;;;;;;;3.05;1.00;;;;;;;;;;5015279;28;20048;-75
2022/02/05 04:41:23;;;;;;;3.47;0.90;;;;;;;;;;5009575;28;20460;-74
2022/02/05 04:44:00;;;;;;;2.30;0.80;;;;;;;;;;5011422;28;20041;-74
2022/02/05 04:46:51;;;;;;;1.60;0.70;;;;;;;;;;5010877;28;20413;-74
2022/02/05 04:49:28;;;;;;;2.35;1.10;;;;;;;;;;5011246;28;20038;-74
2022/02/05 04:52:26;;;;;;;2.65;0.95;;;;;;;;;;5010667;28;20381;-73
2022/02/05 04:55:04;;;;;;;2.67;0.90;;;;;;;;;;5009808;28;20103;-76
2022/02/05 04:57:43;;;;;;;1.92;1.00;;;;;;;;;;5011295;28;20560;-76
2022/02/05 05:06:03;;;;;;;1.48;1.15;;;;;;;;;;4950230;28;20106;-76
2022/02/05 05:08:41;;;;;;;2.13;1.10;;;;;;;;;;4949646;28;20031;-76
2022/02/05 05:21:48;;;;;;;3.38;1.80;;;;;;;;;;4923989;29;20090;-78
2022/02/05 05:24:13;;;;;;;3.67;1.55;;;;;;;;;;4926556;29;20035;-77
2022/02/05 05:26:38;;;;;;;3.15;1.42;;;;;;;;;;4916021;29;20131;-75
2022/02/05 05:29:03;;;;;;;3.72;1.50;;;;;;;;;;4921179;29;20448;-76
2022/02/05 05:31:29;;;;;;;3.38;1.70;;;;;;;;;;4924124;29;20036;-77
2022/02/05 05:33:54;;;;;;;2.65;1.67;;;;;;;;;;4927780;29;20044;-76
2022/02/05 05:36:19;;;;;;;4.50;1.70;;;;;;;;;;4915818;29;20047;-75
2022/02/05 05:38:44;;;;;;;2.33;1.50;;;;;;;;;;4934392;28;20688;-76
2022/02/05 05:41:10;;;;;;;2.25;1.58;;;;;;;;;;4968614;28;20046;-74
2022/02/05 05:43:48;;;;;;;2.97;1.70;;;;;;;;;;4967702;28;20089;-76
2022/02/05 05:46:17;;;;;;;4.22;1.88;;;;;;;;;;4968504;28;20082;-74
2022/02/05 05:51:28;;;;;;;3.85;2.03;;;;;;;;;;4932570;29;20043;-74
2022/02/05 05:53:54;;;;;;;3.70;2.20;;;;;;;;;;4970225;28;20034;-74
2022/02/05 05:56:21;;;;;;;2.97;2.10;;;;;;;;;;4989175;28;20530;-75
2022/02/05 05:58:46;;;;;;;3.78;2.50;;;;;;;;;;4987960;28;20056;-75
2022/02/05 06:01:11;;;;;;;4.05;2.30;;;;;;;;;;4986981;28;20137;-73
2022/02/05 06:03:37;;;;;;;3.58;2.05;;;;;;;;;;4988279;28;20477;-74
2022/02/05 06:06:02;;;;;;;5.00;2.42;;;;;;;;;;4988434;28;20026;-75
2022/02/05 06:08:27;;;;;;;3.67;2.13;;;;;;;;;;4989429;28;20058;-76
2022/02/05 06:10:53;;;;;;;5.07;2.30;;;;;;;;;;4990196;28;20034;-75
2022/02/05 06:13:18;;;;;;;2.97;2.10;;;;;;;;;;4988311;28;20121;-74
2022/02/05 06:15:44;;;;;;;3.55;1.92;;;;;;;;;;4987400;28;20110;-75
2022/02/05 06:18:09;;;;;;;3.17;2.08;;;;;;;;;;4971410;28;20034;-75
2022/02/05 06:20:35;;;;;;;2.13;1.70;;;;;;;;;;4985543;28;20390;-75
2022/02/05 06:23:00;;;;;;;4.03;2.15;;;;;;;;;;4978651;28;20625;-75
2022/02/05 06:25:26;;;;;;;2.90;1.80;;;;;;;;;;4982248;28;20101;-75
2022/02/05 06:27:51;;;;;;;3.28;1.80;;;;;;;;;;4984775;28;20125;-77
2022/02/05 06:30:16;;;;;;;3.20;2.03;;;;;;;;;;4987428;28;20044;-75
2022/02/05 06:32:42;;;;;;;2.75;1.98;;;;;;;;;;5002649;28;20034;-74
2022/02/05 06:35:07;;;;;;;4.10;2.08;;;;;;;;;;5004415;28;20104;-73
2022/02/05 06:37:32;;;;;;;2.63;1.73;;;;;;;;;;5002803;28;20026;-73
2022/02/05 06:39:57;;;;;;;3.85;2.30;;;;;;;;;;5009114;28;20018;-73
2022/02/05 06:42:23;;;;;;;3.20;2.00;;;;;;;;;;5005876;28;20464;-74
2022/02/05 06:44:48;;;;;;;5.50;1.90;;;;;;;;;;5002728;28;20045;-74
2022/02/05 06:47:13;;;;;;;3.95;2.20;;;;;;;;;;5004183;28;20567;-74
2022/02/05 06:49:38;;;;;;;7.38;2.38;;;;;;;;;;5001748;28;20060;-75
2022/02/05 06:52:04;;;;;;;3.58;2.33;;;;;;;;;;5001504;28;20364;-73
2022/02/05 06:54:29;;;;;;;3.80;2.17;;;;;;;;;;5000561;28;20101;-74
2022/02/05 06:56:55;;;;;;;3.65;2.15;;;;;;;;;;5001594;28;20060;-74
2022/02/05 06:59:21;;;;;;;4.85;2.30;;;;;;;;;;5003089;28;20488;-74
2022/02/05 07:01:46;;;;;;;3.53;2.00;;;;;;;;;;5007753;28;20092;-74
2022/02/05 07:04:11;;;;;;;4.15;2.08;;;;;;;;;;5000986;28;20106;-75
2022/02/05 07:06:36;;;;;;;6.00;2.40;;;;;;;;;;5006820;28;20073;-75
2022/02/05 07:09:04;;;;;;;5.10;2.40;;;;;;;;;;5007490;28;20022;-74
2022/02/05 07:11:29;;;;;;;5.60;2.38;;;;;;;;;;5009530;28;20401;-74
2022/02/05 07:13:56;;;;;;;3.25;1.98;;;;;;;;;;5011083;28;20105;-75
2022/02/05 07:16:27;;;;;;;3.80;1.75;;;;;;;;;;5010342;28;20030;-73
2022/02/05 07:21:30;;;;;;;5.60;1.83;;;;;;;;;;5008212;28;20029;-73
2022/02/05 07:24:15;;;;;;;6.03;1.95;;;;;;;;;;5008652;28;20026;-75
2022/02/05 07:29:24;;;;;;;3.17;1.90;;;;;;;;;;5008397;28;20105;-76
2022/02/05 07:31:53;;;;;;;4.22;1.95;;;;;;;;;;5008275;28;20048;-75
2022/02/05 07:34:23;;;;;;;2.97;2.05;;;;;;;;;;5008100;28;20018;-76
2022/02/05 07:36:49;;;;;;;;;;;;;;;;;;5008690;28;20481;-71
2022/02/05 07:39:14;;;;;;;3.25;2.05;;;;;;;;;;5006425;28;20015;-75
2022/02/05 07:41:40;;;;;;;5.97;2.20;;;;;;;;;;5008773;28;20024;-75
2022/02/05 07:44:06;;;;;;;3.90;1.88;;;;;;;;;;5008378;28;20036;-76
2022/02/05 07:46:31;;;;;;;4.50;1.88;;;;;;;;;;5006675;28;20517;-75
2022/02/05 07:48:56;;;;;;;3.55;1.75;;;;;;;;;;5005835;28;20037;-75
2022/02/05 07:51:22;;;;;;;5.60;2.00;;;;;;;;;;5011636;28;20028;-77
2022/02/05 07:53:47;;;;;;;3.13;1.80;;;;;;;;;;5008652;28;20046;-76
2022/02/05 07:56:12;;;;;;;5.82;2.53;;;;;;;;;;5008444;28;20046;-76
2022/02/05 07:58:37;;;;;;;2.25;1.80;;;;;;;;;;5007941;28;20030;-75
2022/02/05 08:01:03;;;;;;;3.58;2.05;;;;;;;;;;5008498;28;20104;-76
2022/02/05 08:03:28;;;;;;;3.25;2.03;;;;;;;;;;5008814;28;20044;-79
2022/02/05 08:05:54;;;;;;;5.25;2.30;;;;;;;;;;5007334;28;20072;-81
2022/02/05 08:08:23;;;;;;;4.30;1.90;;;;;;;;;;5009295;28;20029;-81
2022/02/05 08:10:58;;;;;;;4.32;1.80;;;;;;;;;;5008869;28;20109;-79
2022/02/05 08:13:26;;;;;;;3.50;1.88;;;;;;;;;;5006521;28;20112;-79
2022/02/05 08:15:55;;;;;;;3.85;1.73;;;;;;;;;;5008976;28;20057;-83
2022/02/05 08:18:20;;;;;;;;;;;;;;;;;;5007780;28;20034;-79
2022/02/05 08:20:46;;;;;;;3.38;1.58;;;;;;;;;;5009183;28;19979;-80
2022/02/05 08:23:11;;;;;;;7.00;2.08;;;;;;;;;;5009868;28;20038;-79
2022/02/05 08:25:36;;;;;;;3.00;1.55;;;;;;;;;;5009330;28;20022;-79
2022/02/05 08:28:01;;;;;;;5.03;1.85;;;;;;;;;;5009366;28;20030;-77
2022/02/05 08:30:27;;;;;;;4.63;1.80;;;;;;;;;;5009558;28;20381;-77
2022/02/05 08:32:52;;;;;;;4.10;1.60;;;;;;;;;;5009100;28;20062;-77
2022/02/05 08:35:19;;;;;;;3.78;1.75;;;;;;;;;;5009093;28;20095;-77
2022/02/05 08:37:46;;;;;;;5.97;1.73;;;;;;;;;;5008515;28;20014;-79
2022/02/05 08:40:11;;;;;;;3.88;1.50;;;;;;;;;;5009000;28;20036;-78
2022/02/05 08:42:36;;;;;;;4.05;1.70;;;;;;;;;;5024563;28;20148;-84
2022/02/05 08:45:02;;;;;;;5.07;1.73;;;;;;;;;;5011520;28;20438;-79
2022/02/05 08:47:29;;;;;;;4.80;1.58;;;;;;;;;;5009063;28;20033;-81
2022/02/05 08:49:55;;;;;;;4.18;1.60;;;;;;;;;;5006803;28;20101;-76
2022/02/05 08:52:21;;;;;;;4.05;1.80;;;;;;;;;;5002753;28;20308;-78
2022/02/05 08:54:46;;;;;;;7.13;1.70;;;;;;;;;;5005369;28;20576;-78
2022/02/05 08:57:11;;;;;;;3.65;1.60;;;;;;;;;;5004701;28;20029;-78
2022/02/05 09:00:05;;;;;;;2.60;1.50;;;;;;;;;;5010693;28;20496;-78
2022/02/05 09:02:53;;;;;;;2.92;1.70;;;;;;;;;;5010770;28;20058;-80
2022/02/05 09:07:54;;;;;;;3.13;1.50;;;;;;;;;;5006488;28;20041;-79
2022/02/05 09:10:36;;;;;;;4.18;1.73;;;;;;;;;;5008121;28;20838;-78
2022/02/05 09:13:35;;;;;;;5.70;2.38;;;;;;;;;;5011017;28;20029;-80
2022/02/05 09:15:58;;;;;;;4.72;1.50;;;;;;;;;;5009205;28;20084;-79
2022/02/05 09:18:23;;;;;;;5.40;1.58;;;;;;;;;;5010300;28;20423;-79
2022/02/05 09:20:48;;;;;;;4.53;1.40;;;;;;;;;;5010483;28;20029;-80
2022/02/05 09:23:14;;;;;;;5.53;1.60;;;;;;;;;;5011943;28;20025;-80
2022/02/05 09:25:41;;;;;;;5.30;1.50;;;;;;;;;;5013654;28;20354;-79
2022/02/05 09:28:07;;;;;;;5.15;1.50;;;;;;;;;;5007886;28;20134;-80
2022/02/05 09:30:45;;;;;;;3.95;1.27;;;;;;;;;;5009463;28;20188;-80
2022/02/05 09:33:10;;;;;;;6.10;1.40;;;;;;;;;;5008187;28;20049;-80
2022/02/05 09:35:35;;;;;;;3.70;1.40;;;;;;;;;;5010652;28;20757;-80
2022/02/05 09:38:00;;;;;;;3.47;1.20;;;;;;;;;;5011080;28;20164;-81
2022/02/05 09:40:26;;;;;;;3.33;1.48;;;;;;;;;;5009513;28;20037;-80
2022/02/05 09:42:51;;;;;;;3.60;1.33;;;;;;;;;;5005875;28;20069;-78
2022/02/05 09:45:17;;;;;;;3.05;1.30;;;;;;;;;;5010844;28;20034;-78
2022/02/05 09:47:42;;;;;;;6.57;1.30;;;;;;;;;;5009824;28;20121;-77
2022/02/05 09:50:08;;;;;;;3.78;1.40;;;;;;;;;;5010262;28;20041;-79
2022/02/05 09:52:33;;;;;;;6.88;1.42;;;;;;;;;;5008901;28;20038;-78
2022/02/05 09:54:58;;;;;;;2.47;1.23;;;;;;;;;;5009731;28;20357;-78
2022/02/05 09:57:23;;;;;;;4.43;1.95;;;;;;;;;;5010156;28;20029;-79
2022/02/05 09:59:55;;;;;;;4.63;1.30;;;;;;;;;;5010074;28;20479;-78
2022/02/05 10:02:31;;;;;;;4.07;1.77;;;;;;;;;;5009688;28;20064;-78
2022/02/05 10:04:59;;;;;;;4.80;1.38;;;;;;;;;;5009947;28;20026;-77
2022/02/05 10:07:25;;;;;;;4.05;1.52;;;;;;;;;;5007508;28;20045;-78
2022/02/05 10:10:02;;;;;;;3.88;1.10;;;;;;;;;;5010145;28;20033;-77
2022/02/05 10:12:28;;;;;;;4.40;1.20;;;;;;;;;;5009199;28;20041;-77
2022/02/05 10:14:55;;;;;;;3.65;1.15;;;;;;;;;;5009809;28;20443;-79
2022/02/05 10:17:35;;;;;;;6.25;1.60;;;;;;;;;;5011046;28;20057;-78
2022/02/05 10:20:00;;;;;;;4.25;1.20;;;;;;;;;;5009367;28;20037;-80
2022/02/05 10:22:33;;;;;;;4.45;1.27;;;;;;;;;;5009513;28;20621;-78
2022/02/05 10:25:06;;;;;;;3.55;0.98;;;;;;;;;;5012002;28;20029;-77
2022/02/05 10:27:32;;;;;;;4.80;1.30;;;;;;;;;;5007646;28;20038;-76
2022/02/05 10:30:04;;;;;;;6.95;1.25;;;;;;;;;;5005973;28;20109;-76
2022/02/05 10:32:29;;;;;;;2.60;1.20;;;;;;;;;;5012366;28;20030;-77
2022/02/05 10:35:17;;;;;;;4.03;1.05;;;;;;;;;;5012968;28;20327;-76
2022/02/05 10:37:50;;;;;;;4.90;1.17;;;;;;;;;;5006962;28;20025;-77
2022/02/05 10:40:22;;;;;;;4.70;1.25;;;;;;;;;;5010201;28;20014;-77
2022/02/05 10:45:24;;;;;;;2.22;1.00;;;;;;;;;;5009487;28;20081;-77
2022/02/05 10:47:57;;;;;;;2.53;1.20;;;;;;;;;;5007461;28;20034;-77
2022/02/05 10:50:24;;;;;;;5.07;1.10;;;;;;;;;;5008193;28;20025;-76
2022/02/05 10:52:54;;;;;;;4.28;1.17;;;;;;;;;;5008933;28;20014;-76
2022/02/05 10:55:30;;;;;;;3.85;0.90;;;;;;;;;;5014305;28;20049;-77
2022/02/05 11:08:05;;;;;;;4.13;1.08;;;;;;;;;;5010133;28;20095;-77
2022/02/05 11:21:14;;;;;;;3.25;1.20;;;;;;;;;;4999079;28;20061;-80
2022/02/05 11:23:42;;;;;;;3.13;0.90;;;;;;;;;;4987986;28;20155;-79
2022/02/05 11:26:11;;;;;;;3.00;1.00;;;;;;;;;;4988846;28;20466;-81
2022/02/05 11:28:43;;;;;;;2.00;0.77;;;;;;;;;;4985152;28;20026;-82
2022/02/05 11:31:30;;;;;;;1.70;0.80;;;;;;;;;;4985490;28;20030;-79
2022/02/05 11:34:15;;;;;;;5.47;0.80;;;;;;;;;;4979187;28;20030;-78
2022/02/05 11:36:44;;;;;;;4.45;1.00;;;;;;;;;;4983706;28;20045;-80
2022/02/05 11:39:15;;;;;;;1.67;0.93;;;;;;;;;;4968211;28;20504;-79
2022/02/05 11:41:40;;;;;;;3.05;0.85;;;;;;;;;;4985102;28;20041;-79
2022/02/05 11:44:41;;;;;;;3.30;1.08;;;;;;;;;;4985550;28;20038;-81
2022/02/05 11:47:06;;;;;;;2.13;0.90;;;;;;;;;;4928788;29;20273;-80
2022/02/05 11:49:50;;;;;;;3.45;1.00;;;;;;;;;;4932769;29;20172;-82
2022/02/05 11:52:33;;;;;;;3.80;1.00;;;;;;;;;;4947920;28;20354;-84
2022/02/05 11:54:59;;;;;;;3.47;1.25;;;;;;;;;;4947929;28;20047;-81
2022/02/05 11:57:43;;;;;;;3.45;1.17;;;;;;;;;;4951611;28;20167;-82
2022/02/05 12:00:18;;;;;;;2.45;1.05;;;;;;;;;;4947780;28;20112;-82
2022/02/05 12:02:45;;;;;;;4.05;1.30;;;;;;;;;;4948052;28;20066;-81
2022/02/05 12:05:24;;;;;;;3.33;1.40;;;;;;;;;;4951314;28;20105;-80
2022/02/05 12:08:04;;;;;;;4.07;1.40;;;;;;;;;;4958158;28;20078;-79
2022/02/05 12:10:32;;;;;;;3.50;1.30;;;;;;;;;;4956422;28;20050;-80
2022/02/05 12:13:15;;;;;;;2.40;0.90;;;;;;;;;;4955900;28;20031;-80
2022/02/05 12:15:41;;;;;;;2.88;0.98;;;;;;;;;;4938495;29;20035;-82
2022/02/05 12:21:09;;;;;;;4.35;1.35;;;;;;;;;;4967570;28;20457;-80
2022/02/05 12:26:12;;;;;;;2.50;1.00;;;;;;;;;;5009520;28;20076;-82
2022/02/05 12:28:38;;;;;;;4.10;0.84;;;;;;;;;;5008132;28;20026;-82
2022/02/05 12:31:05;;;;;;;4.00;1.27;;;;;;;;;;5007033;28;20036;-79
2022/02/05 12:33:43;;;;;;;3.50;1.20;;;;;;;;;;5013238;28;20435;-81
2022/02/05 12:36:08;;;;;;;3.63;1.10;;;;;;;;;;5021465;28;20057;-79
2022/02/05 12:38:43;;;;;;;3.17;1.30;;;;;;;;;;5036505;28;20009;-79
2022/02/05 12:41:12;;;;;;;4.72;1.20;;;;;;;;;;5027103;28;20033;-80
2022/02/05 12:43:57;;;;;;;5.43;0.93;;;;;;;;;;5030375;28;20021;-80
2022/02/05 12:46:32;;;;;;;2.83;0.85;;;;;;;;;;5032126;28;20029;-80
2022/02/05 12:49:06;;;;;;;6.43;1.00;;;;;;;;;;5026707;28;20018;-78
2022/02/05 12:51:32;;;;;;;4.13;1.25;;;;;;;;;;5013541;28;20054;-80
2022/02/05 12:54:07;;;;;;;1.52;0.90;;;;;;;;;;5013459;28;20069;-81
2022/02/05 12:56:36;;;;;;;2.47;0.93;;;;;;;;;;5015990;28;20076;-82
2022/02/05 12:59:03;;;;;;;2.15;0.90;;;;;;;;;;5012471;28;20076;-82
2022/02/05 13:01:32;;;;;;;3.83;1.10;;;;;;;;;;5012626;28;20034;-82
2022/02/05 13:04:16;;;;;;;8.05;1.33;;;;;;;;;;5011848;28;20121;-82
2022/02/05 13:06:41;;;;;;;1.90;0.93;;;;;;;;;;5012510;28;20048;-81
2022/02/05 13:09:20;;;;;;;3.40;1.15;;;;;;;;;;5011284;28;20113;-79
2022/02/05 13:11:45;;;;;;;2.88;1.00;;;;;;;;;;5011860;28;20457;-79
2022/02/05 13:14:10;;;;;;;2.75;0.90;;;;;;;;;;5012371;28;20034;-80
2022/02/05 13:16:36;;;;;;;3.30;0.95;;;;;;;;;;5009238;28;20496;-80
2022/02/05 13:19:19;;;;;;;3.70;1.13;;;;;;;;;;5009078;28;20109;-80
2022/02/05 13:27:31;;;;;;;6.43;1.05;;;;;;;;;;5007564;28;20033;-79
2022/02/05 13:33:35;;;;;;;4.25;1.02;;;;;;;;;;5011037;28;20029;-79
2022/02/05 13:35:26;;;;;;;2.25;1.10;;;;;;;;;;5011382;28;20436;-78
2022/02/05 13:37:55;;;;;;;3.20;1.00;;;;;;;;;;5011204;28;20038;-79
2022/02/05 13:40:29;;;;;;;2.95;1.00;;;;;;;;;;5010619;28;20023;-80
2022/02/05 13:43:03;;;;;;;1.90;0.80;;;;;;;;;;5010242;28;20061;-79
2022/02/05 13:45:36;;;;;;;4.05;0.90;;;;;;;;;;5010250;28;20167;-79
2022/02/05 13:48:04;;;;;;;2.88;0.93;;;;;;;;;;5014622;28;20061;-80
2022/02/05 13:50:32;;;;;;;2.40;0.90;;;;;;;;;;5010619;28;20045;-79
2022/02/05 13:53:02;;;;;;;3.78;1.38;;;;;;;;;;5011103;28;20033;-78
2022/02/05 13:55:29;;;;;;;4.38;1.10;;;;;;;;;;5008904;28;20038;-81
2022/02/05 13:57:57;;;;;;;2.38;0.88;;;;;;;;;;5011077;28;20046;-80
2022/02/05 14:00:22;;;;;;;2.33;0.80;;;;;;;;;;5011873;28;20029;-80
2022/02/05 14:02:58;;;;;;;3.03;1.00;;;;;;;;;;5012125;28;20026;-79
2022/02/05 14:05:23;;;;;;;1.92;0.80;;;;;;;;;;5014097;28;20037;-80
2022/02/05 14:07:48;;;;;;;2.17;0.93;;;;;;;;;;5011025;28;20046;-80
2022/02/05 14:10:14;;;;;;;1.85;0.90;;;;;;;;;;5010820;28;20041;-80
2022/02/05 14:12:50;;;;;;;2.88;0.93;;;;;;;;;;5011085;28;20297;-79
2022/02/05 14:15:16;;;;;;;1.77;0.82;;;;;;;;;;5009722;28;20113;-80
2022/02/05 14:17:42;;;;;;;2.92;0.90;;;;;;;;;;5010527;28;20025;-79
2022/02/05 14:20:08;;;;;;;1.75;0.82;;;;;;;;;;5010052;28;20026;-79
2022/02/05 14:22:37;;;;;;;2.72;0.98;;;;;;;;;;5011757;28;20366;-80
2022/02/05 14:25:04;;;;;;;3.20;0.80;;;;;;;;;;5010468;28;20025;-80
2022/02/05 14:27:31;;;;;;;5.38;1.13;;;;;;;;;;5011381;28;20049;-80
2022/02/05 14:30:00;;;;;;;2.90;0.80;;;;;;;;;;5005658;28;20107;-80
2022/02/05 14:32:42;;;;;;;3.38;1.00;;;;;;;;;;5008717;28;20101;-78
2022/02/05 14:40:41;;;;;;;4.93;1.05;;;;;;;;;;5011474;28;20029;-78
2022/02/05 14:43:06;;;;;;;2.42;0.80;;;;;;;;;;5007435;28;20475;-78
2022/02/05 14:45:32;;;;;;;2.58;0.90;;;;;;;;;;5011075;28;20026;-78
2022/02/05 14:47:57;;;;;;;2.97;0.80;;;;;;;;;;5013867;28;20102;-79
2022/02/05 14:50:22;;;;;;;3.10;0.98;;;;;;;;;;5009646;28;20050;-78
2022/02/05 14:52:47;;;;;;;1.70;0.70;;;;;;;;;;5005748;28;20396;-78
2022/02/05 14:55:12;;;;;;;1.27;0.73;;;;;;;;;;5008469;28;20038;-79
2022/02/05 14:57:38;;;;;;;3.33;0.80;;;;;;;;;;5010027;28;20890;-79
2022/02/05 15:00:05;;;;;;;1.55;0.60;;;;;;;;;;5009456;28;20025;-79
2022/02/05 15:02:30;;;;;;;3.13;0.50;;;;;;;;;;5009457;28;20070;-79
2022/02/05 15:04:55;;;;;;;3.08;0.60;;;;;;;;;;5014358;28;20108;-78
2022/02/05 15:07:20;;;;;;;1.20;0.60;;;;;;;;;;5017097;28;20038;-79
2022/02/05 15:09:46;;;;;;;3.75;0.98;;;;;;;;;;5018561;28;20425;-78
2022/02/05 15:12:11;;;;;;;2.50;0.90;;;;;;;;;;5011995;28;20014;-79
2022/02/05 15:14:36;;;;;;;2.88;0.95;;;;;;;;;;5012699;28;20077;-79
2022/02/05 15:17:03;;;;;;;3.57;0.93;;;;;;;;;;5004101;28;20034;-78
2022/02/05 15:19:28;;;;;;;2.38;0.60;;;;;;;;;;5002798;28;20802;-79
2022/02/05 15:21:54;;;;;;;2.38;0.85;;;;;;;;;;5008563;28;20061;-78
2022/02/05 15:24:19;;;;;;;2.67;0.77;;;;;;;;;;5004508;28;20321;-79
2022/02/05 15:26:44;;;;;;;3.22;1.00;;;;;;;;;;5003917;28;20120;-77
2022/02/05 15:29:10;;;;;;;2.17;0.77;;;;;;;;;;5007427;28;20487;-76
2022/02/05 15:31:37;;;;;;;1.50;0.70;;;;;;;;;;5004265;28;20072;-77
2022/02/05 15:34:04;;;;;;;1.80;0.70;;;;;;;;;;5002982;28;20022;-77
2022/02/05 15:36:53;;;;;;;1.60;0.63;;;;;;;;;;5005917;28;20014;-77
2022/02/05 15:44:29;;;;;;;4.30;1.05;;;;;;;;;;5007877;28;20044;-79
2022/02/05 15:46:54;;;;;;;2.33;0.70;;;;;;;;;;5006540;28;20034;-79
2022/02/05 15:49:19;;;;;;;2.83;0.60;;;;;;;;;;5006208;28;20540;-77
2022/02/05 15:51:45;;;;;;;3.50;1.02;;;;;;;;;;5009064;28;20032;-77
2022/02/05 15:54:12;;;;;;;3.00;1.02;;;;;;;;;;5006464;28;20531;-78
2022/02/05 15:56:44;;;;;;;3.30;0.93;;;;;;;;;;5007991;28;20030;-79
2022/02/05 15:59:22;;;;;;;3.05;1.20;;;;;;;;;;5006609;28;20389;-78
2022/02/05 16:01:47;;;;;;;2.45;0.98;;;;;;;;;;5007476;28;20029;-79
2022/02/05 16:04:13;;;;;;;2.97;0.90;;;;;;;;;;5008796;28;20026;-79
2022/02/05 16:06:39;;;;;;;3.20;1.23;;;;;;;;;;5010352;28;20444;-79
2022/02/05 16:09:04;;;;;;;3.58;1.05;;;;;;;;;;5007744;28;20054;-80
2022/02/05 16:11:30;;;;;;;2.72;1.08;;;;;;;;;;5008989;28;20030;-78
2022/02/05 16:13:55;;;;;;;2.92;1.20;;;;;;;;;;5008901;28;20030;-80
2022/02/05 16:16:20;;;;;;;4.25;1.70;;;;;;;;;;5023225;28;20187;-80
2022/02/05 16:18:46;;;;;;;6.93;1.48;;;;;;;;;;5008499;28;20022;-79
2022/02/05 16:21:11;;;;;;;4.00;1.27;;;;;;;;;;5011063;28;20099;-80
2022/02/05 16:23:36;;;;;;;5.85;1.55;;;;;;;;;;5008832;28;20038;-79
2022/02/05 16:26:02;;;;;;;3.75;1.10;;;;;;;;;;5007649;28;20018;-78
2022/02/05 16:28:30;;;;;;;3.75;1.20;;;;;;;;;;5008452;28;20103;-78
2022/02/05 16:30:58;;;;;;;3.58;1.38;;;;;;;;;;5008262;28;20030;-77
2022/02/05 16:33:25;;;;;;;4.47;1.30;;;;;;;;;;5008417;28;20488;-80
2022/02/05 16:36:00;;;;;;;4.90;1.55;;;;;;;;;;5008721;28;20385;-79
2022/02/05 16:38:30;;;;;;;4.40;1.30;;;;;;;;;;5008791;28;20212;-78
2022/02/05 16:40:55;;;;;;;3.50;1.50;;;;;;;;;;5003650;28;20030;-77
2022/02/05 16:43:20;;;;;;;7.47;1.98;;;;;;;;;;5008367;28;20496;-78
2022/02/05 16:45:46;;;;;;;5.65;1.75;;;;;;;;;;5013653;28;20084;-79
2022/02/05 16:48:12;;;;;;;3.72;1.45;;;;;;;;;;5008889;28;20034;-79
2022/02/05 16:50:42;;;;;;;6.80;1.70;;;;;;;;;;5006272;28;20014;-78
2022/02/05 16:53:10;;;;;;;5.53;1.85;;;;;;;;;;5006759;28;20389;-78
2022/02/05 16:55:35;;;;;;;6.18;1.65;;;;;;;;;;5007787;28;20030;-78
2022/02/05 16:58:00;;;;;;;5.57;1.83;;;;;;;;;;5002912;28;20684;-79
2022/02/05 17:00:27;;;;;;;3.95;1.70;;;;;;;;;;5005859;28;20030;-79
2022/02/05 17:02:54;;;;;;;8.07;2.55;;;;;;;;;;5003140;28;20466;-79
2022/02/05 17:05:20;;;;;;;6.53;2.28;;;;;;;;;;5005880;28;20057;-79
2022/02/05 17:07:45;;;;;;;8.18;2.28;;;;;;;;;;5000701;28;20415;-80
2022/02/05 17:10:11;;;;;;;4.20;2.13;;;;;;;;;;5003085;28;20021;-80
2022/02/05 17:12:37;;;;;;;4.10;2.20;;;;;;;;;;5007315;28;20629;-79
2022/02/05 17:15:02;;;;;;;6.85;2.75;;;;;;;;;;5007137;28;20397;-79
2022/02/05 17:17:29;;;;;;;7.55;3.30;;;;;;;;;;5008409;28;20026;-79
2022/02/05 17:19:57;;;;;;;8.75;3.63;;;;;;;;;;5008955;28;20026;-80
2022/02/05 17:22:26;;;;;;;6.60;2.90;;;;;;;;;;5009216;28;20038;-78
2022/02/05 17:24:52;;;;;;;7.57;2.72;;;;;;;;;;5011342;28;20034;-79
2022/02/05 17:27:17;;;;;;;6.43;2.40;;;;;;;;;;5011787;28;20083;-78
2022/02/05 17:29:43;;;;;;;7.70;3.08;;;;;;;;;;5011785;28;20014;-79
2022/02/05 17:32:08;;;;;;;6.70;3.03;;;;;;;;;;5012428;28;20105;-78
2022/02/05 17:34:40;;;;;;;12.45;3.38;;;;;;;;;;5012763;28;20061;-78
2022/02/05 17:37:06;;;;;;;7.50;3.90;;;;;;;;;;5007429;28;20503;-78
2022/02/05 17:39:33;;;;;;;8.57;4.13;;;;;;;;;;5010006;28;20022;-79
2022/02/05 17:41:59;;;;;;;9.27;4.00;;;;;;;;;;5011593;28;20377;-78
2022/02/05 17:44:24;;;;;;;18.02;7.03;;;;;;;;;;5009830;28;20030;-79